Hoosick Falls, New York
Current Conditions -  °F | °C
As of 10:03 PM on Thursday 27 Nov 2014 (Local Time) from KDDH Reporting Station
Light Snow Light Snow  
Wind Chill: 27°   Ceiling: 2000
Heat Index: 27°   Visibility: 1.5mi
Dew Point: 24°   Wind: 3mph
Humidity: 89%   Direction: 220°SW
Pressure: 30.01"   Gusts: NA
Location:  42.9°N, 73.35°W
Report Text: KDDH 280303Z AUTO 22003KT 1 1/2SM -SN BR FEW007 BKN020 OVC038 M03/M04 A3001 RMK AO2 P0000 T10281044
Loading
Personal Weather Stations






























Interactive Weather Map New forecast layout! Learn more

10-Day Weather Forecast

Advertisements
Track Severe Weather on mobile